Livermore, CO

3:09 AM MDT on April 27, 2015 (GMT -0600)
APRSWXNET | | Change Station
CLOSE
Current Station
Personal Weather Station
Location: Livermore, CO
Elevation: 6594 ft
Nearby Weather Stations

Elev 6594 ft 40.84 °N, 105.33 °W | Updated 51 minutes ago

Overcast
Overcast
33 °F
Feels Like 33 °F
N
0
Wind Variable Wind from ESE
Gusts 2.0 mph

Today
High -- | Low -- °F
--% Chance of Precip.
Yesterday
High -- | Low -- °F
Precip. -- in
6:05 AM 7:53 PM
Waxing Gibbous, 63% visible
Pressure 30.10 in
Visibility 4.0 miles
Clouds Few 1000 ft
Overcast 3100 ft
Windchill 33 °F
Dew Point 32 °F
Humidity 98%
Rainfall in
Snow Depth Not available.
UV 0 out of 12
Pollen 3.80 out of 12
Air Quality Not available.
Flu Activity Sporadic
METAR KFEW 270856Z AUTO 05001KT 4SM -SN BR FEW010 OVC031 00/00 A3009 RMK AO2 SNE0759SNB33 SLP193 P0008 60021 T00040002 50001 $

More Conditions Fewer Conditions

Pressure 30.10 in
Visibility 4.0 miles
Clouds Few 1000 ft
Overcast 3100 ft
Windchill 33 °F
Dew Point 32 °F
Humidity 98%
Rainfall in
Snow Depth Not available.
UV 0 out of 12
Pollen 3.80 out of 12
Air Quality Not available.
Flu Activity Sporadic
METAR KFEW 270856Z AUTO 05001KT 4SM -SN BR FEW010 OVC031 00/00 A3009 RMK AO2 SNE0759SNB33 SLP193 P0008 60021 T00040002 50001 $

More Conditions Fewer Conditions

10-Day Weather Forecast

Almanac

Astronomy

Apr. 27, 2015 Rise Set
Actual Time
Civil Twilight
Nautical Twilight
Astronomical Twilight
Moon
Length of Visible Light
Length of Day
Tomorrow will be .
, % of the Moon is Illuminated

Today's Extremes

State Highs State Lows

Community

WunderPhotos

Upload Photos

1,817,277 photos uploaded!

WunderBlogs® & News

Nearby

Air Quality

  Air Quality AQ Index Pollutant
Not available.

Snow Depth

Station Depth Elevation

Earthquake Activity

City Distance Mag. Time & Date
Minimum magnitude displayed is 2.5.

Coastal Water Temperatures

Place Temperature

Stations

Nearby Weather Stations

Station Location Temp. Windchill Dew Point Humidity Wind Precip. Elev Updated Type